Eielson Air Force Base Fairbanks US
ICAO: PAEI
IATA:
Category: Medium
Scheduled Services:

Elevation: 547 ft
TransAlt. 18000 ft.

Airport Communications:
FAIRBANKS APP:125.35
ASOS:118.525
ATIS:27.35
CLNC DEL:34.37
FAIRBANKS DEP:126.5
GND:121.8
RANGE CON:125.3
SOURDOUGH:139.6
IGLOO:25.95
PMSV METRO:34.66
CHENA CON:23.81
PTD:37.22
TWR:127.2

PAEI Zoom In..

Runways:

(A) RW 14 length 14530 ft width 150 ft
ILS 110.50 / hdg 136

(B) RW 32 length 14530 ft width 150 ft
ILS 109.90 / hdg 316

Location; PAEI
Day. 15 / Time. 21.56 Zulu
* Altimeter: 29.75
* Temperature: 18° c. 64.4°f.
* Wind from: 270° Speed 05 kn.
Dewpoint: 08° c.
Visibility: 10 Statute Miles.
Clouds: Few 6000 ft.
Clouds: Broken 11000 ft.

PAEI 152156Z 27005KT 10SM FEW060 BKN110 18/08 A2975 RMK AO2A RAE13 SLP078 P0000 T01780084 $


Wind From 270°
Speed 05 kn.

 
 
jpsmedia.com for Web Design worldairports.se 2018   terms of use